LRSV

Suceava Stefan cel Mare Airport

Airport
ICAO code
LRSV
IATA Code
SCV
Summary
ICAO Region
EUR
ICAO Territory
Location

, Suceava

Serving
Suceava
Elevation
1375 ft
Coordinates
47° 41' 15" N , 26° 21' 15" E
Metar
LRSV 221900Z 31011KT 9999 VCTS SCT030CB 20/18 Q1013

Runways

Designator Length Width Surface Rops
16/34 1800 30 CON No/No

Airport map

Aerial View

SKYbrary Partners:

Safety knowledge contributed by: